createdAt,value
2023-05-16T00:00:38.819Z,9.50
2023-05-16T00:03:12.042Z,11.30
2023-05-16T00:05:40.907Z,10.73
2023-05-16T00:08:09.599Z,9.67
2023-05-16T00:10:38.789Z,10.30
2023-05-16T00:13:07.861Z,11.87
2023-05-16T00:15:38.574Z,10.03
2023-05-16T00:18:08.986Z,10.17
2023-05-16T00:20:40.986Z,10.33
2023-05-16T00:23:09.732Z,10.37
2023-05-16T00:25:38.763Z,10.97
2023-05-16T00:28:08.292Z,12.37
2023-05-16T00:30:37.553Z,10.43
2023-05-16T00:33:06.581Z,11.77
2023-05-16T00:35:36.854Z,10.67
2023-05-16T00:38:07.994Z,9.63
2023-05-16T00:40:36.724Z,10.17
2023-05-16T00:43:07.708Z,9.90
2023-05-16T00:45:36.683Z,9.47
2023-05-16T00:48:05.861Z,9.23
2023-05-16T00:50:38.353Z,10.13
2023-05-16T00:53:07.320Z,9.37
2023-05-16T00:55:36.416Z,9.47
2023-05-16T00:58:06.909Z,8.57
2023-05-16T01:00:36.347Z,10.87
2023-05-16T01:03:07.173Z,10.00
2023-05-16T01:05:37.389Z,9.73
2023-05-16T01:08:06.324Z,10.10
2023-05-16T01:10:42.141Z,8.47
2023-05-16T01:13:14.171Z,9.47
2023-05-16T01:15:48.528Z,10.00
2023-05-16T01:18:26.417Z,9.43
2023-05-16T01:21:04.317Z,9.27
2023-05-16T01:23:48.448Z,9.00
2023-05-16T01:26:21.633Z,11.30
2023-05-16T01:28:52.165Z,9.87
2023-05-16T01:31:21.293Z,10.27
2023-05-16T01:33:50.650Z,11.00
2023-05-16T01:36:26.568Z,11.03
2023-05-16T01:39:04.202Z,11.03
2023-05-16T01:41:44.722Z,11.40
2023-05-16T01:44:20.292Z,11.53
2023-05-16T01:46:50.897Z,10.10
2023-05-16T01:49:27.081Z,11.13
2023-05-16T01:52:00.104Z,9.20
2023-05-16T01:54:33.123Z,9.63
2023-05-16T01:57:08.342Z,8.57
2023-05-16T01:59:38.106Z,9.07
2023-05-16T02:02:07.213Z,9.90
2023-05-16T02:04:35.963Z,10.17
2023-05-16T02:07:06.964Z,10.53
2023-05-16T02:09:35.670Z,9.40
2023-05-16T02:12:09.258Z,9.27
2023-05-16T02:14:37.949Z,9.83
2023-05-16T02:17:11.417Z,10.87
2023-05-16T02:19:40.160Z,9.67
2023-05-16T02:22:10.798Z,11.43
2023-05-16T02:24:39.831Z,10.03
2023-05-16T02:27:10.046Z,9.87
2023-05-16T02:29:39.009Z,8.30
2023-05-16T02:32:08.449Z,10.60
2023-05-16T02:34:37.199Z,9.77
2023-05-16T02:37:06.226Z,8.93
2023-05-16T02:39:35.080Z,9.10
2023-05-16T02:42:04.168Z,9.73
2023-05-16T02:44:34.341Z,10.70
2023-05-16T02:47:02.972Z,12.20
2023-05-16T02:49:31.661Z,8.50
2023-05-16T02:52:00.359Z,10.20
2023-05-16T02:54:29.050Z,10.07
2023-05-16T02:56:57.718Z,8.33
2023-05-16T02:59:26.337Z,9.03
2023-05-16T03:01:56.486Z,9.50
2023-05-16T03:04:25.400Z,9.20
2023-05-16T03:06:54.052Z,9.03
2023-05-16T03:09:23.017Z,8.67
2023-05-16T03:11:51.673Z,8.03
2023-05-16T03:14:20.352Z,9.70
2023-05-16T03:16:49.149Z,10.03
2023-05-16T03:19:19.331Z,9.43
2023-05-16T03:21:48.088Z,8.57
2023-05-16T03:24:16.791Z,9.70
2023-05-16T03:26:45.387Z,9.63
2023-05-16T03:29:14.016Z,8.97
2023-05-16T03:31:42.705Z,8.83
2023-05-16T03:34:11.344Z,8.37
2023-05-16T03:36:43.370Z,10.00
2023-05-16T03:39:12.165Z,9.30
2023-05-16T03:41:40.881Z,10.10
2023-05-16T03:44:09.529Z,8.43
2023-05-16T03:46:38.252Z,9.13
2023-05-16T03:49:06.885Z,9.93
2023-05-16T03:51:35.534Z,10.13
2023-05-16T03:54:06.135Z,8.40
2023-05-16T03:56:34.832Z,8.33
2023-05-16T03:59:03.760Z,9.13
2023-05-16T04:01:35.676Z,10.90
2023-05-16T04:04:04.562Z,8.43
2023-05-16T04:06:36.110Z,8.97
2023-05-16T04:09:07.234Z,8.37
2023-05-16T04:11:36.514Z,9.07
2023-05-16T04:14:05.271Z,8.47
2023-05-16T04:16:33.924Z,9.60
2023-05-16T04:19:04.256Z,8.97
2023-05-16T04:21:33.337Z,9.57
2023-05-16T04:24:02.049Z,9.30
2023-05-16T04:26:32.226Z,8.93
2023-05-16T04:29:00.885Z,8.53
2023-05-16T04:31:29.536Z,9.80
2023-05-16T04:33:58.814Z,8.73
2023-05-16T04:36:30.161Z,9.87
2023-05-16T04:38:58.946Z,9.63
2023-05-16T04:41:27.643Z,10.43
2023-05-16T04:43:57.855Z,9.93
2023-05-16T04:46:26.815Z,10.07
2023-05-16T04:48:55.454Z,10.40
2023-05-16T04:51:24.437Z,10.27
2023-05-16T04:53:53.136Z,10.30
2023-05-16T04:56:22.466Z,8.90
2023-05-16T04:58:51.044Z,10.47
2023-05-16T05:01:21.230Z,9.80
2023-05-16T05:03:49.936Z,10.80
2023-05-16T05:06:18.604Z,11.73
2023-05-16T05:08:47.357Z,10.37
2023-05-16T05:11:16.247Z,11.13
2023-05-16T05:13:44.841Z,9.67
2023-05-16T05:16:13.708Z,9.57
2023-05-16T05:18:44.683Z,9.60
2023-05-16T05:21:13.470Z,12.70
2023-05-16T05:23:42.258Z,9.77
2023-05-16T05:26:10.948Z,9.20
2023-05-16T05:28:40.962Z,11.30
2023-05-16T05:31:11.019Z,9.47
2023-05-16T05:33:39.730Z,10.13
2023-05-16T05:36:10.511Z,8.77
2023-05-16T05:38:39.270Z,10.47
2023-05-16T05:41:07.943Z,10.27
2023-05-16T05:43:36.535Z,9.53
2023-05-16T05:46:05.338Z,9.73
2023-05-16T05:48:34.261Z,10.63
2023-05-16T05:51:02.896Z,9.23
2023-05-16T05:53:32.890Z,11.27
2023-05-16T05:56:01.566Z,11.50
2023-05-16T05:58:30.348Z,11.87
2023-05-16T06:00:59.006Z,9.30
2023-05-16T06:03:27.690Z,11.07
2023-05-16T06:05:56.451Z,10.47
2023-05-16T06:08:25.190Z,11.07
2023-05-16T06:10:55.534Z,11.27
2023-05-16T06:13:24.179Z,10.67
2023-05-16T06:15:53.097Z,11.47
2023-05-16T06:18:21.846Z,10.87
2023-05-16T06:20:50.616Z,10.50
2023-05-16T06:23:21.176Z,10.53
2023-05-16T06:25:50.191Z,10.17
2023-05-16T06:28:20.196Z,10.60
2023-05-16T06:30:51.769Z,11.30
2023-05-16T06:33:20.808Z,11.03
2023-05-16T06:35:49.761Z,9.77
2023-05-16T06:38:20.913Z,10.17
2023-05-16T06:40:49.554Z,11.17
2023-05-16T06:43:19.525Z,10.33
2023-05-16T06:45:48.136Z,10.73
2023-05-16T06:48:17.027Z,11.73
2023-05-16T06:50:49.185Z,11.73
2023-05-16T06:53:18.089Z,13.00
2023-05-16T06:55:47.143Z,11.07
2023-05-16T06:58:16.028Z,11.20
2023-05-16T07:00:46.629Z,11.30
2023-05-16T07:03:15.447Z,9.87
2023-05-16T07:05:44.288Z,12.10
2023-05-16T07:08:13.054Z,10.87
2023-05-16T07:10:41.734Z,12.20
2023-05-16T07:13:10.421Z,10.73
2023-05-16T07:15:39.209Z,11.80
2023-05-16T07:18:09.435Z,10.13
2023-05-16T07:20:38.158Z,11.47
2023-05-16T07:23:08.074Z,12.43
2023-05-16T07:25:36.841Z,11.63
2023-05-16T07:28:05.718Z,10.50
2023-05-16T07:30:34.841Z,9.97
2023-05-16T07:33:03.520Z,12.13
2023-05-16T07:35:36.756Z,10.80
2023-05-16T07:38:07.833Z,9.83
2023-05-16T07:40:36.622Z,10.50
2023-05-16T07:43:05.213Z,10.50
2023-05-16T07:45:33.962Z,11.17
2023-05-16T07:48:02.909Z,9.60
2023-05-16T07:50:32.970Z,10.70
2023-05-16T07:53:01.615Z,10.00
2023-05-16T07:55:30.423Z,11.03
2023-05-16T07:57:59.196Z,12.93
2023-05-16T08:00:27.940Z,10.47
2023-05-16T08:02:56.919Z,10.43
2023-05-16T08:05:25.899Z,10.83
2023-05-16T08:07:56.106Z,10.63
2023-05-16T08:10:24.774Z,10.10
2023-05-16T08:12:53.938Z,11.07
2023-05-16T08:15:22.980Z,12.10
2023-05-16T08:17:51.685Z,11.13
2023-05-16T08:20:20.366Z,10.80
2023-05-16T08:22:49.052Z,10.40
2023-05-16T08:25:19.314Z,11.77
2023-05-16T08:27:50.603Z,12.47
2023-05-16T08:30:19.305Z,11.13
2023-05-16T08:32:48.063Z,10.80
2023-05-16T08:35:16.828Z,11.03
2023-05-16T08:37:45.587Z,12.53
2023-05-16T08:40:15.565Z,11.73
2023-05-16T08:42:45.922Z,12.00
2023-05-16T08:45:14.776Z,11.43
2023-05-16T08:47:45.211Z,11.53
2023-05-16T08:50:15.544Z,12.87
2023-05-16T08:52:45.511Z,12.60
2023-05-16T08:55:15.788Z,11.90
2023-05-16T08:57:46.480Z,12.17
2023-05-16T09:00:16.343Z,11.23
2023-05-16T09:02:45.415Z,12.20
2023-05-16T09:05:16.706Z,9.93
2023-05-16T09:07:46.179Z,9.80
2023-05-16T09:10:15.079Z,11.10
2023-05-16T09:12:45.799Z,12.33
2023-05-16T09:15:14.499Z,10.90
2023-05-16T09:17:45.393Z,11.70
2023-05-16T09:20:16.225Z,12.70
2023-05-16T09:22:53.765Z,11.73
2023-05-16T09:25:30.298Z,12.00
2023-05-16T09:28:03.414Z,11.57
2023-05-16T09:30:34.419Z,12.13
2023-05-16T09:33:03.644Z,11.07
2023-05-16T09:38:05.010Z,11.27
2023-05-16T09:40:33.721Z,11.67
2023-05-16T09:43:08.606Z,10.30
2023-05-16T09:45:37.991Z,11.47
2023-05-16T09:48:08.118Z,10.57
2023-05-16T09:50:38.052Z,11.80
2023-05-16T09:53:07.228Z,9.87
2023-05-16T09:55:36.654Z,11.57
2023-05-16T09:58:06.917Z,10.90
2023-05-16T10:00:35.953Z,11.93
2023-05-16T10:03:06.142Z,11.80
2023-05-16T10:05:35.820Z,12.10
2023-05-16T10:08:05.672Z,12.40
2023-05-16T10:10:39.316Z,13.07
2023-05-16T10:13:11.815Z,11.97
2023-05-16T10:15:40.850Z,13.27
2023-05-16T10:18:13.201Z,13.13
2023-05-16T10:20:44.172Z,12.87
2023-05-16T10:23:17.879Z,12.80
2023-05-16T10:25:47.993Z,14.07
2023-05-16T10:28:18.193Z,14.10
2023-05-16T10:30:48.036Z,13.83
2023-05-16T10:33:18.999Z,13.77
2023-05-16T10:35:47.793Z,16.70
2023-05-16T10:38:19.639Z,16.33
2023-05-16T10:40:49.767Z,13.67
2023-05-16T10:43:27.765Z,14.57
2023-05-16T10:45:57.123Z,14.17
2023-05-16T10:48:33.004Z,13.90
2023-05-16T10:51:03.027Z,13.50
2023-05-16T10:53:33.463Z,15.30
2023-05-16T10:56:10.091Z,13.77
2023-05-16T10:58:50.087Z,14.57
2023-05-16T11:01:24.353Z,14.53
2023-05-16T11:04:16.917Z,14.60
2023-05-16T11:06:47.611Z,15.33
2023-05-16T11:09:28.305Z,14.63
2023-05-16T11:11:59.749Z,14.87
2023-05-16T11:14:37.718Z,13.40
2023-05-16T11:17:10.712Z,14.87
2023-05-16T11:19:45.606Z,15.93
2023-05-16T11:22:22.995Z,14.87
2023-05-16T11:24:54.525Z,14.97
2023-05-16T11:27:25.467Z,15.77
2023-05-16T11:29:56.856Z,13.33
2023-05-16T11:32:25.757Z,14.63
2023-05-16T11:34:55.593Z,14.50
2023-05-16T11:37:24.303Z,14.17
2023-05-16T11:39:52.998Z,16.47
2023-05-16T11:42:21.997Z,15.13
2023-05-16T11:44:50.636Z,16.57
2023-05-16T11:47:20.893Z,16.73
2023-05-16T11:49:49.665Z,15.90
2023-05-16T11:52:18.433Z,15.00
2023-05-16T11:54:47.840Z,18.10
2023-05-16T11:57:16.733Z,18.30
2023-05-16T11:59:45.718Z,15.40
2023-05-16T12:02:14.434Z,15.17
2023-05-16T12:04:48.787Z,15.13
2023-05-16T12:07:17.551Z,16.37
2023-05-16T12:09:54.638Z,16.53
2023-05-16T12:12:23.489Z,15.33
2023-05-16T12:14:52.198Z,15.50
2023-05-16T12:17:22.330Z,15.53
2023-05-16T12:19:52.672Z,16.47
2023-05-16T12:22:21.701Z,14.77
2023-05-16T12:24:50.470Z,15.63
2023-05-16T12:27:23.578Z,15.77
2023-05-16T12:29:52.372Z,16.27
2023-05-16T12:32:21.173Z,15.83
2023-05-16T12:34:56.342Z,15.57
2023-05-16T12:37:25.020Z,15.03
2023-05-16T12:40:00.681Z,16.40
2023-05-16T12:42:30.951Z,14.27
2023-05-16T12:45:00.035Z,14.37
2023-05-16T12:47:38.342Z,15.10
2023-05-16T12:50:14.237Z,15.77
2023-05-16T12:52:50.679Z,16.40
2023-05-16T12:55:20.563Z,14.70
2023-05-16T12:57:50.757Z,16.10
2023-05-16T13:00:21.824Z,15.03
2023-05-16T13:02:50.876Z,16.67
2023-05-16T13:05:23.420Z,15.20
2023-05-16T13:07:52.783Z,16.13
2023-05-16T13:10:21.666Z,14.70
2023-05-16T13:12:50.448Z,14.30
2023-05-16T13:15:19.177Z,15.37
2023-05-16T13:17:48.806Z,15.20
2023-05-16T13:20:17.677Z,14.20
2023-05-16T13:22:47.720Z,15.03
2023-05-16T13:25:16.353Z,14.03
2023-05-16T13:27:44.973Z,15.70
2023-05-16T13:30:13.947Z,13.60
2023-05-16T13:32:42.759Z,15.20
2023-05-16T13:35:11.768Z,13.93
2023-05-16T13:37:41.559Z,13.87
2023-05-16T13:40:12.634Z,13.03
2023-05-16T13:42:41.358Z,14.43
2023-05-16T13:45:10.542Z,13.80
2023-05-16T13:47:39.271Z,13.43
2023-05-16T13:50:10.520Z,14.23
2023-05-16T13:52:42.713Z,14.37
2023-05-16T13:55:12.739Z,13.90
2023-05-16T13:57:41.372Z,14.97
2023-05-16T14:02:44.962Z,15.27
2023-05-16T14:05:13.732Z,15.10
2023-05-16T14:07:43.289Z,15.20
2023-05-16T14:10:14.412Z,13.83
2023-05-16T14:12:43.515Z,14.13
2023-05-16T14:15:12.360Z,14.47
2023-05-16T14:17:41.179Z,14.10
2023-05-16T14:20:10.767Z,14.53
2023-05-16T14:22:39.720Z,13.23
2023-05-16T14:25:09.434Z,14.90
2023-05-16T14:27:39.520Z,14.27
2023-05-16T14:30:09.649Z,14.03
2023-05-16T14:32:38.533Z,13.67
2023-05-16T14:35:09.507Z,13.20
2023-05-16T14:37:38.223Z,14.17
2023-05-16T14:40:09.629Z,14.10
2023-05-16T14:42:39.767Z,13.63
2023-05-16T14:45:09.558Z,14.03
2023-05-16T14:47:38.436Z,14.40
2023-05-16T14:50:08.361Z,13.33
2023-05-16T14:52:39.030Z,13.40
2023-05-16T14:55:07.976Z,16.20
2023-05-16T14:57:37.075Z,14.03
2023-05-16T15:00:10.867Z,13.37
2023-05-16T15:02:39.795Z,13.67
2023-05-16T15:05:09.566Z,13.37
2023-05-16T15:07:38.441Z,13.57
2023-05-16T15:10:10.687Z,13.27
2023-05-16T15:12:43.456Z,14.40
2023-05-16T15:15:16.384Z,17.27
2023-05-16T15:17:45.529Z,15.20
2023-05-16T15:20:14.567Z,14.57
2023-05-16T15:22:43.354Z,16.50
2023-05-16T15:25:12.733Z,14.33
2023-05-16T15:27:42.136Z,14.73
2023-05-16T15:30:14.664Z,14.33
2023-05-16T15:32:43.384Z,15.33
2023-05-16T15:35:12.130Z,14.57
2023-05-16T15:37:42.152Z,15.97
2023-05-16T15:40:12.471Z,14.47
2023-05-16T15:42:44.258Z,15.53
2023-05-16T15:45:16.381Z,14.37
2023-05-16T15:47:45.146Z,15.70
2023-05-16T15:50:15.632Z,16.50
2023-05-16T15:52:48.858Z,14.43
2023-05-16T15:55:20.672Z,13.90
2023-05-16T15:57:52.220Z,15.30
2023-05-16T16:00:38.963Z,13.90
2023-05-16T16:03:09.100Z,14.13
2023-05-16T16:05:40.340Z,15.37
2023-05-16T16:08:09.125Z,13.37
2023-05-16T16:10:43.757Z,14.60
2023-05-16T16:13:12.507Z,14.30
2023-05-16T16:15:42.680Z,14.17
2023-05-16T16:18:11.987Z,14.80
2023-05-16T16:20:40.874Z,12.23
2023-05-16T16:23:09.713Z,13.90
2023-05-16T16:25:38.758Z,13.50
2023-05-16T16:28:07.879Z,14.87
2023-05-16T16:30:36.780Z,13.77
2023-05-16T16:33:06.939Z,13.70
2023-05-16T16:35:35.879Z,14.23
2023-05-16T16:38:07.064Z,13.43
2023-05-16T16:40:36.428Z,14.40
2023-05-16T16:43:06.017Z,13.20
2023-05-16T16:45:35.075Z,12.83
2023-05-16T16:48:09.503Z,13.13
2023-05-16T16:50:40.228Z,12.57
2023-05-16T16:53:09.063Z,13.33
2023-05-16T16:55:40.692Z,13.97
2023-05-16T16:58:10.066Z,12.77
2023-05-16T17:00:39.045Z,12.87
2023-05-16T17:03:09.572Z,14.73
2023-05-16T17:05:38.536Z,13.87
2023-05-16T17:08:08.309Z,12.90
2023-05-16T17:10:37.110Z,12.80
2023-05-16T17:13:10.338Z,12.90
2023-05-16T17:15:44.203Z,13.47
2023-05-16T17:18:14.785Z,12.73
2023-05-16T17:20:46.682Z,14.37
2023-05-16T17:23:15.490Z,14.33
2023-05-16T17:25:45.320Z,14.93
2023-05-16T17:28:14.018Z,12.53
2023-05-16T17:30:42.828Z,14.50
2023-05-16T17:33:11.608Z,12.43
2023-05-16T17:35:41.992Z,13.93
2023-05-16T17:38:11.371Z,14.30
2023-05-16T17:40:40.229Z,12.63
2023-05-16T17:43:09.382Z,11.80
2023-05-16T17:45:38.373Z,12.13
2023-05-16T17:48:08.032Z,12.17
2023-05-16T17:50:37.755Z,11.83
2023-05-16T17:53:08.083Z,12.37
2023-05-16T17:55:38.153Z,11.93
2023-05-16T17:58:09.732Z,14.30
2023-05-16T18:00:38.570Z,11.93
2023-05-16T18:03:07.757Z,12.57
2023-05-16T18:05:36.958Z,11.93
2023-05-16T18:08:08.621Z,13.83
2023-05-16T18:10:50.846Z,12.87
2023-05-16T18:13:22.013Z,13.83
2023-05-16T18:15:51.519Z,14.20
2023-05-16T18:18:20.322Z,14.33
2023-05-16T18:20:50.913Z,13.70
2023-05-16T18:23:21.415Z,12.03
2023-05-16T18:25:50.184Z,12.87
2023-05-16T18:28:18.917Z,11.67
2023-05-16T18:30:47.662Z,13.33
2023-05-16T18:33:16.902Z,13.90
2023-05-16T18:35:45.565Z,13.00
2023-05-16T18:38:28.317Z,12.50
2023-05-16T18:41:02.649Z,12.13
2023-05-16T18:43:35.266Z,12.60
2023-05-16T18:46:04.207Z,12.40
2023-05-16T18:48:34.660Z,11.83
2023-05-16T18:51:05.101Z,12.50
2023-05-16T18:53:33.990Z,14.63
2023-05-16T18:56:04.558Z,12.43
2023-05-16T18:58:33.378Z,12.73
2023-05-16T19:01:02.412Z,13.00
2023-05-16T19:03:31.559Z,14.30
2023-05-16T19:06:00.409Z,12.90
2023-05-16T19:08:36.791Z,12.07
2023-05-16T19:11:18.204Z,13.03
2023-05-16T19:13:47.506Z,14.00
2023-05-16T19:16:16.773Z,11.97
2023-05-16T19:18:45.695Z,13.70
2023-05-16T19:21:15.776Z,12.57
2023-05-16T19:23:45.539Z,14.00
2023-05-16T19:26:14.416Z,15.63
2023-05-16T19:28:44.658Z,13.93
2023-05-16T19:31:13.532Z,12.63
2023-05-16T19:33:45.155Z,13.03
2023-05-16T19:36:14.155Z,14.00
2023-05-16T19:38:42.972Z,11.83
2023-05-16T19:41:11.850Z,11.90
2023-05-16T19:43:40.708Z,12.57
2023-05-16T19:46:11.548Z,11.30
2023-05-16T19:48:40.544Z,11.57
2023-05-16T19:51:09.931Z,11.30
2023-05-16T19:53:39.030Z,12.30
2023-05-16T19:56:09.787Z,11.90
2023-05-16T19:58:38.698Z,10.93
2023-05-16T20:01:07.832Z,13.57
2023-05-16T20:03:38.084Z,11.40
2023-05-16T20:06:07.977Z,11.70
2023-05-16T20:08:36.707Z,12.00
2023-05-16T20:11:05.502Z,10.20
2023-05-16T20:13:34.493Z,11.47
2023-05-16T20:16:04.172Z,12.20
2023-05-16T20:18:33.038Z,11.00
2023-05-16T20:21:03.260Z,12.53
2023-05-16T20:23:36.232Z,11.97
2023-05-16T20:26:05.233Z,12.47
2023-05-16T20:28:34.013Z,10.33
2023-05-16T20:31:03.046Z,11.60
2023-05-16T20:33:31.961Z,11.10
2023-05-16T20:36:02.277Z,12.47
2023-05-16T20:38:31.013Z,10.97
2023-05-16T20:41:00.431Z,12.97
2023-05-16T20:43:29.268Z,10.43
2023-05-16T20:45:58.152Z,11.90
2023-05-16T20:48:27.084Z,11.67
2023-05-16T20:50:56.690Z,12.93
2023-05-16T20:53:27.028Z,12.07
2023-05-16T20:55:55.955Z,13.80
2023-05-16T20:58:27.451Z,11.33
2023-05-16T21:00:56.392Z,13.07
2023-05-16T21:03:27.218Z,11.30
2023-05-16T21:05:56.148Z,12.37
2023-05-16T21:08:26.385Z,11.80
2023-05-16T21:10:55.193Z,11.33
2023-05-16T21:13:24.442Z,12.03
2023-05-16T21:15:55.074Z,14.60
2023-05-16T21:18:23.980Z,11.80
2023-05-16T21:21:01.758Z,11.13
2023-05-16T21:23:33.772Z,11.00
2023-05-16T21:26:02.557Z,9.93
2023-05-16T21:28:34.720Z,12.33
2023-05-16T21:31:10.476Z,10.63
2023-05-16T21:33:40.873Z,12.07
2023-05-16T21:36:10.090Z,11.33
2023-05-16T21:38:40.429Z,11.40
2023-05-16T21:41:09.571Z,10.20
2023-05-16T21:43:38.523Z,11.90
2023-05-16T21:46:07.457Z,11.63
2023-05-16T21:48:36.731Z,9.90
2023-05-16T21:51:05.953Z,11.70
2023-05-16T21:53:34.760Z,11.43
2023-05-16T21:56:05.568Z,11.37
2023-05-16T21:58:34.372Z,11.30
2023-05-16T22:01:03.550Z,11.97
2023-05-16T22:03:32.731Z,9.90
2023-05-16T22:06:01.924Z,11.03
2023-05-16T22:08:30.746Z,12.17
2023-05-16T22:10:59.497Z,11.13
2023-05-16T22:13:29.596Z,10.60
2023-05-16T22:16:04.698Z,12.03
2023-05-16T22:18:34.437Z,11.40
2023-05-16T22:21:03.454Z,11.63
2023-05-16T22:23:32.447Z,10.77
2023-05-16T22:26:02.637Z,10.93
2023-05-16T22:28:32.807Z,9.57
2023-05-16T22:31:01.460Z,11.20
2023-05-16T22:33:30.240Z,12.23
2023-05-16T22:35:59.136Z,11.27
2023-05-16T22:38:30.400Z,12.73
2023-05-16T22:40:59.262Z,10.53
2023-05-16T22:43:28.008Z,11.20
2023-05-16T22:45:58.732Z,12.50
2023-05-16T22:48:28.562Z,11.13
2023-05-16T22:50:57.919Z,11.57
2023-05-16T22:53:28.087Z,11.57
2023-05-16T22:55:56.997Z,10.83
2023-05-16T22:58:25.665Z,11.97
2023-05-16T23:00:54.361Z,11.23
2023-05-16T23:03:24.589Z,10.90
2023-05-16T23:05:53.291Z,11.03
2023-05-16T23:08:22.010Z,11.20
2023-05-16T23:10:51.731Z,10.50
2023-05-16T23:13:20.479Z,11.13
2023-05-16T23:15:49.362Z,11.30
2023-05-16T23:18:18.246Z,11.10
2023-05-16T23:20:48.320Z,11.10
2023-05-16T23:23:17.089Z,10.40
2023-05-16T23:25:46.327Z,12.17
2023-05-16T23:28:15.098Z,10.43
2023-05-16T23:30:43.906Z,11.17
2023-05-16T23:33:12.993Z,11.20
2023-05-16T23:35:41.847Z,11.37
2023-05-16T23:38:11.919Z,10.63
2023-05-16T23:40:40.743Z,10.77
2023-05-16T23:43:09.669Z,10.90
2023-05-16T23:45:38.396Z,10.70
2023-05-16T23:48:07.945Z,10.37
2023-05-16T23:50:36.863Z,10.77
2023-05-16T23:53:05.560Z,11.30
2023-05-16T23:55:35.877Z,11.57
2023-05-16T23:58:04.721Z,10.37
